createdAt,value
2023-02-09T00:01:18.242Z,98529.28
2023-02-09T00:06:15.404Z,98519.91
2023-02-09T00:11:10.688Z,98516.53
2023-02-09T00:16:05.740Z,98519.97
2023-02-09T00:21:03.520Z,98521.66
2023-02-09T00:25:59.576Z,98515.63
2023-02-09T00:30:53.043Z,98521.63
2023-02-09T00:35:46.757Z,98520.75
2023-02-09T00:40:42.863Z,98519.03
2023-02-09T00:45:37.202Z,98513.81
2023-02-09T00:50:33.666Z,98518.94
2023-02-09T00:55:29.069Z,98518.13
2023-02-09T01:00:24.065Z,98512.97
2023-02-09T01:05:17.930Z,98512.09
2023-02-09T01:10:14.727Z,98519.78
2023-02-09T01:15:11.451Z,98511.25
2023-02-09T01:20:09.726Z,98511.28
2023-02-09T01:25:03.434Z,98517.25
2023-02-09T01:29:56.840Z,98512.09
2023-02-09T01:34:52.725Z,98509.50
2023-02-09T01:39:47.670Z,98505.19
2023-02-09T01:45:16.077Z,98498.31
2023-02-09T01:50:10.321Z,98495.81
2023-02-09T01:55:11.679Z,98493.25
2023-02-09T02:00:10.304Z,98487.28
2023-02-09T02:05:05.894Z,98489.03
2023-02-09T02:09:59.768Z,98499.28
2023-02-09T02:14:54.493Z,98500.94
2023-02-09T02:20:53.664Z,98493.22
2023-02-09T02:26:49.661Z,98481.25
2023-02-09T02:32:23.104Z,98488.03
2023-02-09T02:37:43.414Z,98483.72
2023-02-09T02:42:53.465Z,98482.00
2023-02-09T02:47:59.430Z,98476.09
2023-02-09T02:52:58.729Z,98470.94
2023-02-09T02:57:57.695Z,98465.03
2023-02-09T03:03:01.166Z,98457.31
2023-02-09T03:07:57.056Z,98470.03
2023-02-09T03:13:21.757Z,98471.66
2023-02-09T03:23:58.195Z,98483.88
2023-02-09T03:28:57.872Z,98477.84
2023-02-09T03:33:53.088Z,98484.53
2023-02-09T03:38:46.779Z,98487.03
2023-02-09T03:43:57.635Z,98495.63
2023-02-09T03:48:52.387Z,98493.06
2023-02-09T03:53:47.230Z,98501.66
2023-02-09T03:58:45.712Z,98509.31
2023-02-09T04:03:40.898Z,98512.59
2023-02-09T04:08:37.737Z,98500.75
2023-02-09T04:13:42.236Z,98511.88
2023-02-09T04:18:38.491Z,98513.66
2023-02-09T04:23:32.060Z,98507.59
2023-02-09T04:28:27.006Z,98509.19
2023-02-09T04:33:20.505Z,98512.63
2023-02-09T04:38:29.097Z,98510.81
2023-02-09T04:43:38.581Z,98514.22
2023-02-09T04:48:46.771Z,98521.88
2023-02-09T04:53:48.824Z,98527.03
2023-02-09T04:59:10.385Z,98518.47
2023-02-09T05:04:04.033Z,98523.63
2023-02-09T05:09:08.519Z,98533.78
2023-02-09T05:14:03.295Z,98525.84
2023-02-09T05:18:56.620Z,98533.47
2023-02-09T05:23:49.994Z,98540.38
2023-02-09T05:28:43.308Z,98537.06
2023-02-09T05:33:38.080Z,98538.75
2023-02-09T05:38:31.429Z,98545.69
2023-02-09T05:43:24.709Z,98543.03
2023-02-09T05:48:18.719Z,98539.00
2023-02-09T05:53:15.206Z,98535.44
2023-02-09T05:58:08.701Z,98536.44
2023-02-09T06:03:26.538Z,98539.72
2023-02-09T06:08:29.832Z,98543.97
2023-02-09T06:13:23.237Z,98557.34
2023-02-09T06:18:16.821Z,98561.63
2023-02-09T06:23:10.196Z,98567.72
2023-02-09T06:28:09.892Z,98567.03
2023-02-09T06:33:03.252Z,98569.69
2023-02-09T06:37:59.016Z,98575.66
2023-02-09T06:43:07.629Z,98579.16
2023-02-09T06:48:02.605Z,98582.38
2023-02-09T06:52:56.134Z,98578.94
2023-02-09T06:57:49.593Z,98574.84
2023-02-09T07:02:43.850Z,98581.56
2023-02-09T07:07:39.322Z,98585.56
2023-02-09T07:12:32.769Z,98590.81
2023-02-09T07:17:26.242Z,98591.81
2023-02-09T07:22:20.786Z,98592.06
2023-02-09T07:27:15.939Z,98601.38
2023-02-09T07:32:09.797Z,98594.81
2023-02-09T07:37:04.622Z,98600.88
2023-02-09T07:41:58.138Z,98605.28
2023-02-09T07:47:14.714Z,98606.97
2023-02-09T07:52:38.700Z,98611.28
2023-02-09T07:57:47.288Z,98613.94
2023-02-09T08:03:11.701Z,98617.47
2023-02-09T08:14:53.615Z,98614.94
2023-02-09T08:20:34.632Z,98615.81
2023-02-09T08:26:32.596Z,98622.66
2023-02-09T08:31:53.775Z,98620.13
2023-02-09T08:37:04.345Z,98609.91
2023-02-09T08:42:23.626Z,98612.44
2023-02-09T08:47:33.481Z,98610.78
2023-02-09T08:52:54.402Z,98611.63
2023-02-09T08:58:10.013Z,98609.09
2023-02-09T09:03:32.481Z,98607.38
2023-02-09T09:08:56.573Z,98600.50
2023-02-09T09:14:16.175Z,98603.94
2023-02-09T10:48:58.866Z,98617.34
2023-02-09T11:00:49.188Z,98618.13
2023-02-09T11:06:35.995Z,98604.28
2023-02-09T11:17:49.458Z,98589.63
2023-02-09T11:24:01.916Z,98576.56
2023-02-09T11:35:29.553Z,98570.44
2023-02-09T11:46:27.549Z,98565.09
2023-02-09T11:51:23.794Z,98557.22
2023-02-09T11:56:23.556Z,98549.44
2023-02-09T12:01:36.056Z,98549.38
2023-02-09T12:06:42.095Z,98544.03
2023-02-09T12:11:50.813Z,98541.25
2023-02-09T12:16:55.214Z,98539.53
2023-02-09T12:21:50.667Z,98524.13
2023-02-09T12:26:46.920Z,98524.91
2023-02-09T12:32:26.449Z,98515.41
2023-02-09T12:37:29.279Z,98513.69
2023-02-09T12:42:31.057Z,98505.03
2023-02-09T12:47:58.722Z,98494.75
2023-02-09T12:53:45.364Z,98495.50
2023-02-09T12:58:54.359Z,98485.06
2023-02-09T13:03:59.998Z,98478.97
2023-02-09T13:08:58.325Z,98482.38
2023-02-09T13:13:57.392Z,98470.34
2023-02-09T13:19:07.758Z,98476.13
2023-02-09T13:24:11.616Z,98475.25
2023-02-09T13:29:19.761Z,98469.13
2023-02-09T13:34:35.325Z,98473.38
2023-02-09T13:39:39.825Z,98475.97
2023-02-09T13:49:41.333Z,98475.00
2023-02-09T13:54:34.757Z,98466.50
2023-02-09T13:59:28.479Z,98472.56
2023-02-09T14:04:26.573Z,98476.72
2023-02-09T14:09:27.797Z,98464.31
2023-02-09T14:14:50.825Z,98457.50
2023-02-09T14:19:57.736Z,98461.97
2023-02-09T14:24:55.071Z,98468.88
2023-02-09T14:29:51.004Z,98462.81
2023-02-09T14:34:44.566Z,98475.84
2023-02-09T14:39:56.637Z,98473.25
2023-02-09T14:44:55.984Z,98472.34
2023-02-09T14:49:49.398Z,98467.75
2023-02-09T14:54:51.460Z,98461.06
2023-02-09T14:59:48.739Z,98468.78
2023-02-09T15:04:42.347Z,98473.91
2023-02-09T15:09:41.283Z,98464.47
2023-02-09T15:14:46.849Z,98479.19
2023-02-09T15:19:41.828Z,98479.19
2023-02-09T15:24:35.661Z,98486.00
2023-02-09T15:29:29.437Z,98484.44
2023-02-09T15:34:23.580Z,98500.00
2023-02-09T15:39:23.215Z,98498.34
2023-02-09T15:44:37.564Z,98498.34
2023-02-09T15:49:31.453Z,98509.63
2023-02-09T15:54:33.922Z,98511.44
2023-02-09T15:59:27.513Z,98514.88
2023-02-09T16:04:21.311Z,98510.63
2023-02-09T16:09:22.356Z,98519.38
2023-02-09T16:14:21.185Z,98521.19
2023-02-09T16:19:14.811Z,98514.44
2023-02-09T16:24:22.207Z,98517.16
2023-02-09T16:29:17.412Z,98518.16
2023-02-09T16:34:15.467Z,98526.06
2023-02-09T16:39:18.635Z,98531.34
2023-02-09T16:44:21.386Z,98535.78
2023-02-09T16:49:32.960Z,98557.44
2023-02-09T16:54:26.343Z,98553.16
2023-02-09T16:59:22.381Z,98558.44
2023-02-09T17:04:15.865Z,98558.47
2023-02-09T17:09:16.341Z,98569.72
2023-02-09T17:14:10.311Z,98558.63
2023-02-09T17:19:13.957Z,98560.34
2023-02-09T17:24:14.036Z,98556.88
2023-02-09T17:29:07.590Z,98569.88
2023-02-09T17:34:08.012Z,98569.91
2023-02-09T17:39:05.551Z,98572.47
2023-02-09T17:44:22.386Z,98573.38
2023-02-09T17:49:23.872Z,98580.22
2023-02-09T17:54:19.938Z,98586.34
2023-02-09T17:59:14.290Z,98589.81
2023-02-09T18:04:17.463Z,98594.09
2023-02-09T18:09:21.007Z,98601.78
2023-02-09T18:14:19.305Z,98595.78
2023-02-09T18:19:13.623Z,98606.97
2023-02-09T18:24:08.071Z,98604.38
2023-02-09T18:29:02.984Z,98609.56
2023-02-09T18:33:58.159Z,98606.22
2023-02-09T18:38:53.506Z,98605.28
2023-02-09T18:43:47.013Z,98611.28
2023-02-09T18:48:41.901Z,98616.53
2023-02-09T18:53:35.400Z,98626.03
2023-02-09T18:58:28.900Z,98626.06
2023-02-09T19:03:31.736Z,98634.63
2023-02-09T19:08:26.568Z,98642.34
2023-02-09T19:13:52.111Z,98644.03
2023-02-09T19:19:11.994Z,98656.94
2023-02-09T19:24:07.461Z,98659.53
2023-02-09T19:34:29.060Z,98672.47
2023-02-09T19:39:23.852Z,98665.59
2023-02-09T19:44:17.569Z,98665.56
2023-02-09T19:49:19.204Z,98668.13
2023-02-09T19:54:15.790Z,98671.59
2023-02-09T19:59:16.519Z,98679.34
2023-02-09T20:04:14.571Z,98696.50
2023-02-09T20:09:12.478Z,98693.09
2023-02-09T20:14:07.237Z,98702.47
2023-02-09T20:19:02.517Z,98702.47
2023-02-09T20:23:58.278Z,98710.22
2023-02-09T20:28:52.235Z,98716.25
2023-02-09T20:33:45.938Z,98726.56
2023-02-09T20:38:51.707Z,98718.84
2023-02-09T20:44:13.241Z,98717.97
2023-02-09T20:49:09.328Z,98726.56
2023-02-09T20:54:04.810Z,98714.56
2023-02-09T20:59:02.362Z,98718.84
2023-02-09T21:03:58.881Z,98724.84
2023-02-09T21:08:53.282Z,98730.00
2023-02-09T21:13:49.684Z,98733.41
2023-02-09T21:18:44.433Z,98745.44
2023-02-09T21:23:38.054Z,98741.13
2023-02-09T21:28:31.937Z,98748.03
2023-02-09T21:33:27.217Z,98749.72
2023-02-09T21:38:20.577Z,98752.28
2023-02-09T21:43:13.921Z,98752.28
2023-02-09T21:48:07.463Z,98750.59
2023-02-09T21:53:03.075Z,98749.72
2023-02-09T21:57:56.385Z,98748.88
2023-02-09T22:02:54.401Z,98752.25
2023-02-09T22:07:48.377Z,98756.59
2023-02-09T22:12:43.131Z,98763.44
2023-02-09T22:17:38.541Z,98774.59
2023-02-09T22:22:32.214Z,98767.72
2023-02-09T22:27:25.661Z,98781.47
2023-02-09T22:32:21.266Z,98792.56
2023-02-09T22:37:14.596Z,98795.13
2023-02-09T22:42:08.253Z,98790.88
2023-02-09T22:47:01.925Z,98805.41
2023-02-09T22:51:56.653Z,98802.81
2023-02-09T22:56:50.099Z,98795.97
2023-02-09T23:01:44.453Z,98813.91
2023-02-09T23:06:38.198Z,98818.22
2023-02-09T23:11:33.577Z,98816.56
2023-02-09T23:16:30.035Z,98812.25
2023-02-09T23:21:27.563Z,98818.16
2023-02-09T23:26:22.272Z,98842.06
2023-02-09T23:31:20.858Z,98836.16
2023-02-09T23:36:18.286Z,98842.13
2023-02-09T23:41:15.145Z,98842.97
2023-02-09T23:46:13.276Z,98852.41
2023-02-09T23:51:12.345Z,98855.81
2023-02-09T23:56:06.594Z,98861.72
